Time;durP1;ratioP1;P1;durP2;ratioP2;P2;SDS_P1;SDS_P2;PMS_P1;PMS_P2;Temp;Humidity;BMP_temperature;BMP_pressure;BME280_temperature;BME280_humidity;BME280_pressure;Samples;Min_cycle;Max_cycle;Signal;HPM_P1;HPM_P2
2023/01/30 00:02:04;;;;;;;64.70;34.37;;;;;;;3.51;100.00;101069.63;5022746;28;20292;-74
2023/01/30 00:04:30;;;;;;;61.13;32.33;;;;;;;3.55;100.00;101074.91;5022728;28;20186;-71
2023/01/30 00:06:55;;;;;;;61.53;32.27;;;;;;;3.57;100.00;101075.88;5024747;28;20183;-68
2023/01/30 00:09:21;;;;;;;61.73;32.13;;;;;;;3.62;100.00;101059.25;5025065;28;20202;-70
2023/01/30 00:11:46;;;;;;;62.17;32.50;;;;;;;3.64;100.00;101044.97;5024953;28;20214;-71
2023/01/30 00:14:12;;;;;;;61.23;32.87;;;;;;;3.68;100.00;101034.22;5025433;28;20272;-71
2023/01/30 00:16:37;;;;;;;56.23;30.73;;;;;;;3.70;100.00;101055.44;5031683;28;20202;-71
2023/01/30 00:19:02;;;;;;;57.33;32.50;;;;;;;3.77;100.00;101033.81;5036673;28;20205;-71
2023/01/30 00:21:28;;;;;;;62.83;32.83;;;;;;;3.75;100.00;101026.16;5023036;28;20213;-72
2023/01/30 00:23:53;;;;;;;61.77;32.30;;;;;;;3.76;100.00;101022.81;5031744;28;20671;-73
2023/01/30 00:26:19;;;;;;;62.40;33.00;;;;;;;3.78;100.00;101012.78;5032000;28;20546;-69
2023/01/30 00:28:44;;;;;;;72.57;34.23;;;;;;;3.78;100.00;101005.16;5032008;28;20644;-73
2023/01/30 00:31:10;;;;;;;65.20;33.30;;;;;;;3.78;100.00;100983.22;5031915;28;20214;-74
2023/01/30 00:33:37;;;;;;;62.57;32.13;;;;;;;3.82;100.00;100972.47;5028191;28;20273;-72
2023/01/30 00:36:03;;;;;;;67.20;33.90;;;;;;;3.84;100.00;100965.81;5030323;28;20683;-73
2023/01/30 00:38:29;;;;;;;66.40;35.03;;;;;;;3.90;100.00;100962.69;5030744;28;20209;-73
2023/01/30 00:40:54;;;;;;;61.03;33.20;;;;;;;3.89;100.00;100966.91;5036584;28;20222;-73
2023/01/30 00:48:58;;;;;;;61.03;31.97;;;;;;;3.93;100.00;100957.78;5027745;28;20187;-71
2023/01/30 00:51:24;;;;;;;60.10;33.03;;;;;;;3.95;100.00;100944.41;5028658;28;20202;-72
2023/01/30 00:53:49;;;;;;;56.33;30.67;;;;;;;4.03;100.00;100957.41;5025068;28;20183;-72
2023/01/30 00:56:15;;;;;;;57.07;32.47;;;;;;;4.03;100.00;100938.03;5024945;28;20722;-71
2023/01/30 00:58:40;;;;;;;55.63;31.83;;;;;;;4.03;100.00;100939.69;5012490;28;20201;-71
2023/01/30 01:01:06;;;;;;;62.63;32.63;;;;;;;4.04;100.00;100929.63;5026818;28;20234;-72
2023/01/30 01:03:31;;;;;;;59.73;32.00;;;;;;;4.06;100.00;100920.44;5021115;28;20195;-72
2023/01/30 01:05:58;;;;;;;54.17;29.63;;;;;;;4.13;100.00;100916.50;5026526;28;20194;-72
2023/01/30 01:08:23;;;;;;;55.83;31.70;;;;;;;4.14;100.00;100908.97;5027075;28;21808;-71
2023/01/30 01:10:49;;;;;;;58.33;31.07;;;;;;;4.16;100.00;100893.84;5033307;28;20289;-71
2023/01/30 01:13:14;;;;;;;59.43;32.00;;;;;;;4.17;100.00;100883.78;5037344;28;20193;-71
2023/01/30 01:15:40;;;;;;;57.00;30.60;;;;;;;4.18;100.00;100880.47;5034938;28;20232;-71
2023/01/30 01:18:05;;;;;;;60.53;32.93;;;;;;;4.20;100.00;100875.47;5026820;28;20233;-70
2023/01/30 01:20:31;;;;;;;56.60;30.43;;;;;;;4.21;100.00;100873.00;5028707;28;20194;-71
2023/01/30 01:22:57;;;;;;;56.80;32.73;;;;;;;4.23;100.00;100868.00;5026335;28;20225;-70
2023/01/30 01:25:23;;;;;;;54.73;32.10;;;;;;;4.26;100.00;100866.47;5030658;28;20201;-71
2023/01/30 01:27:49;;;;;;;54.27;30.67;;;;;;;4.27;100.00;100862.25;5024694;28;20651;-71
2023/01/30 01:30:16;;;;;;;62.23;33.13;;;;;;;4.29;100.00;100853.06;5025892;28;20195;-70
2023/01/30 01:32:42;;;;;;;55.67;31.67;;;;;;;4.32;100.00;100849.00;5024427;28;20207;-70
2023/01/30 01:35:08;;;;;;;53.77;32.50;;;;;;;4.40;100.00;100844.25;5024291;28;20885;-71
2023/01/30 01:37:34;;;;;;;57.13;33.10;;;;;;;4.39;100.00;100834.91;5024217;28;20195;-72
2023/01/30 01:42:44;;;;;;;57.37;31.23;;;;;;;4.46;100.00;100825.09;5021368;28;20640;-75
2023/01/30 01:45:10;;;;;;;51.13;32.30;;;;;;;4.53;100.00;100834.72;5026980;28;20257;-73
2023/01/30 01:47:42;;;;;;;54.30;31.67;;;;;;;4.57;100.00;100826.47;5027366;28;20195;-71
2023/01/30 01:50:20;;;;;;;51.10;29.93;;;;;;;4.59;100.00;100834.97;5026577;28;20735;-69
2023/01/30 01:52:48;;;;;;;53.53;30.87;;;;;;;4.60;100.00;100816.41;5041278;28;20221;-70
2023/01/30 01:55:14;;;;;;;51.77;29.93;;;;;;;4.61;100.00;100813.09;5024911;28;20182;-73
2023/01/30 01:57:50;;;;;;;58.70;33.07;;;;;;;4.60;100.00;100801.22;5024788;28;20272;-70
2023/01/30 02:00:18;;;;;;;53.07;31.47;;;;;;;4.60;100.00;100786.00;5028069;28;20228;-73
2023/01/30 02:02:50;;;;;;;59.10;31.33;;;;;;;4.61;100.00;100789.41;5027325;28;20206;-70
2023/01/30 02:05:18;;;;;;;59.60;31.63;;;;;;;4.60;100.00;100788.53;5026013;28;20190;-71
2023/01/30 02:07:52;;;;;;;53.87;32.10;;;;;;;4.63;100.00;100786.13;5027177;28;20249;-73
2023/01/30 02:10:55;;;;;;;55.57;31.83;;;;;;;4.62;100.00;100769.19;5028361;28;20205;-73
2023/01/30 02:13:21;;;;;;;60.90;32.33;;;;;;;4.65;100.00;100773.53;4979194;28;20252;-73
2023/01/30 02:15:47;;;;;;;57.23;31.77;;;;;;;4.65;100.00;100764.22;5024849;28;20195;-73
2023/01/30 02:18:13;;;;;;;57.60;33.23;;;;;;;4.67;100.00;100776.97;5020951;28;20221;-70
2023/01/30 02:21:00;;;;;;;59.90;32.03;;;;;;;4.68;100.00;100773.63;5026702;28;20597;-73
2023/01/30 02:24:00;;;;;;;62.97;33.97;;;;;;;4.67;100.00;100770.25;5028643;28;20549;-73
2023/01/30 02:26:48;;;;;;;58.73;31.97;;;;;;;4.65;100.00;100774.38;5003644;28;20190;-73
2023/01/30 02:29:29;;;;;;;60.37;34.17;;;;;;;4.67;100.00;100755.03;5023458;28;20194;-73
2023/01/30 02:32:14;;;;;;;61.07;33.43;;;;;;;4.67;100.00;100761.78;5023783;28;20211;-71
2023/01/30 02:35:07;;;;;;;60.23;32.07;;;;;;;4.67;100.00;100727.16;5023366;28;20734;-72
2023/01/30 02:37:33;;;;;;;61.10;33.00;;;;;;;4.69;100.00;100732.28;5020521;28;20267;-72
2023/01/30 02:40:24;;;;;;;61.00;31.93;;;;;;;4.70;100.00;100728.94;5011396;28;20770;-73
2023/01/30 02:42:59;;;;;;;60.93;33.50;;;;;;;4.71;100.00;100743.34;5026372;28;20898;-73
2023/01/30 02:45:35;;;;;;;59.87;30.97;;;;;;;4.73;100.00;100729.03;5022117;28;20182;-73
2023/01/30 02:48:21;;;;;;;56.13;30.53;;;;;;;4.75;100.00;100718.16;5021693;28;20320;-73
2023/01/30 02:51:02;;;;;;;54.10;31.47;;;;;;;4.75;100.00;100724.91;5018931;28;20210;-72
2023/01/30 02:53:32;;;;;;;55.27;30.17;;;;;;;4.75;100.00;100712.25;5023882;28;20801;-73
2023/01/30 02:55:58;;;;;;;58.53;31.97;;;;;;;4.78;100.00;100717.44;5027418;28;20281;-73
2023/01/30 02:58:29;;;;;;;51.67;29.30;;;;;;;4.80;100.00;100706.56;5007472;28;20719;-73
2023/01/30 03:01:07;;;;;;;53.60;28.87;;;;;;;4.81;100.00;100703.22;5017236;28;20217;-72
2023/01/30 03:04:00;;;;;;;48.13;27.20;;;;;;;4.86;100.00;100698.31;5025101;28;20268;-72
2023/01/30 03:06:31;;;;;;;44.90;25.87;;;;;;;4.89;100.00;100700.97;5004096;28;20190;-74
2023/01/30 03:09:29;;;;;;;46.17;26.77;;;;;;;4.92;100.00;100696.03;5036932;28;20333;-71
2023/01/30 03:12:09;;;;;;;45.80;25.30;;;;;;;4.93;100.00;100691.00;5042029;28;20606;-73
2023/01/30 03:14:45;;;;;;;44.40;25.33;;;;;;;4.96;100.00;100678.44;5013870;28;20201;-74
2023/01/30 03:17:12;;;;;;;42.97;25.07;;;;;;;5.00;100.00;100681.94;5021816;28;20576;-73
2023/01/30 03:19:37;;;;;;;39.70;24.20;;;;;;;5.01;100.00;100673.56;5020299;28;20752;-73
2023/01/30 03:22:03;;;;;;;39.83;22.83;;;;;;;5.05;100.00;100671.19;5020634;28;20214;-73
2023/01/30 03:24:29;;;;;;;37.20;22.40;;;;;;;5.05;100.00;100662.69;5026229;28;20189;-73
2023/01/30 03:27:04;;;;;;;37.80;23.20;;;;;;;5.11;100.00;100652.78;5024099;28;20182;-72
2023/01/30 03:29:30;;;;;;;39.43;23.20;;;;;;;5.14;100.00;100655.44;5020717;28;20267;-71
2023/01/30 03:31:55;;;;;;;36.40;22.27;;;;;;;5.19;100.00;100646.31;5020368;28;20245;-73
2023/01/30 03:34:21;;;;;;;39.40;22.37;;;;;;;5.22;100.00;100648.97;5023579;28;20193;-71
2023/01/30 03:36:48;;;;;;;42.40;22.50;;;;;;;5.25;100.00;100627.09;5021456;28;20194;-73
2023/01/30 03:39:14;;;;;;;37.43;23.37;;;;;;;5.25;100.00;100629.63;5021479;28;20289;-73
2023/01/30 03:41:40;;;;;;;37.47;21.57;;;;;;;5.25;100.00;100618.66;5019643;28;20362;-72
2023/01/30 03:44:06;;;;;;;41.63;22.67;;;;;;;5.27;100.00;100628.03;5019063;28;20186;-73
2023/01/30 03:46:31;;;;;;;42.03;22.80;;;;;;;5.31;100.00;100617.19;5024496;28;20178;-72
2023/01/30 03:48:56;;;;;;;36.87;21.40;;;;;;;5.32;100.00;100618.03;5026282;28;20773;-73
2023/01/30 03:51:22;;;;;;;39.97;22.30;;;;;;;5.36;100.00;100612.28;5024225;28;20302;-73
2023/01/30 03:53:48;;;;;;;38.33;22.67;;;;;;;5.37;100.00;100617.41;5025699;28;20206;-72
2023/01/30 03:56:13;;;;;;;33.00;20.83;;;;;;;5.39;100.00;100598.00;5023769;28;20187;-74
2023/01/30 03:58:39;;;;;;;35.70;20.93;;;;;;;5.41;100.00;100598.06;5023848;28;20217;-73
2023/01/30 04:01:15;;;;;;;32.23;20.87;;;;;;;5.48;100.00;100594.94;5021959;28;20321;-72
2023/01/30 04:03:41;;;;;;;29.73;19.20;;;;;;;5.50;100.00;100589.13;5025409;28;20293;-72
2023/01/30 04:06:07;;;;;;;31.47;18.97;;;;;;;5.49;100.00;100582.31;5023183;28;20194;-72
2023/01/30 04:08:32;;;;;;;27.30;18.47;;;;;;;5.52;100.00;100572.25;5020519;28;20214;-72
2023/01/30 04:10:58;;;;;;;29.50;18.40;;;;;;;5.53;100.00;100565.50;5026246;28;20202;-72
2023/01/30 04:13:23;;;;;;;31.00;18.40;;;;;;;5.55;100.00;100574.03;5023704;28;20806;-73
2023/01/30 04:15:49;;;;;;;30.20;17.80;;;;;;;5.55;100.00;100563.88;5023506;28;20547;-73
2023/01/30 04:18:44;;;;;;;33.57;18.67;;;;;;;5.55;100.00;100569.81;5011491;28;20647;-73
2023/01/30 04:21:17;;;;;;;32.80;19.83;;;;;;;5.57;100.00;100563.09;5025653;28;20253;-73
2023/01/30 04:23:43;;;;;;;33.73;19.50;;;;;;;5.60;100.00;100555.59;5006089;28;20219;-72
2023/01/30 04:26:09;;;;;;;31.93;18.63;;;;;;;5.66;100.00;100560.88;5026769;28;20214;-73
2023/01/30 04:28:37;;;;;;;31.00;18.13;;;;;;;5.69;100.00;100555.03;5025971;28;20190;-72
2023/01/30 04:31:03;;;;;;;28.97;17.70;;;;;;;5.72;100.00;100555.16;5026631;28;20260;-73
2023/01/30 04:34:00;;;;;;;25.87;15.80;;;;;;;5.72;100.00;100557.69;5002408;28;20203;-72
2023/01/30 04:36:28;;;;;;;29.80;16.90;;;;;;;5.73;100.00;100567.91;5025569;28;20242;-72
2023/01/30 04:38:55;;;;;;;23.70;14.60;;;;;;;5.74;100.00;100564.56;5024510;28;20641;-71
2023/01/30 04:41:20;;;;;;;27.63;14.40;;;;;;;5.77;100.00;100559.59;5026984;28;20219;-72
2023/01/30 04:43:46;;;;;;;22.23;12.87;;;;;;;5.81;100.00;100561.44;5021753;28;20190;-73
2023/01/30 04:46:30;;;;;;;20.27;12.77;;;;;;;5.83;100.00;100561.47;5024214;28;20210;-71
2023/01/30 04:48:56;;;;;;;22.77;12.67;;;;;;;5.83;100.00;100575.06;5023746;28;20182;-72
2023/01/30 04:51:21;;;;;;;19.37;11.57;;;;;;;5.87;100.00;100573.47;5023646;28;20214;-72
2023/01/30 04:53:47;;;;;;;16.83;10.63;;;;;;;5.89;100.00;100575.25;5024055;28;20679;-72
2023/01/30 04:56:12;;;;;;;18.07;11.43;;;;;;;5.90;100.00;100560.88;5030714;28;20536;-72
2023/01/30 04:58:38;;;;;;;18.47;10.73;;;;;;;5.89;100.00;100567.63;5024443;28;20206;-71
2023/01/30 05:01:25;;;;;;;14.57;9.77;;;;;;;5.89;100.00;100574.41;5029767;28;20313;-72
2023/01/30 05:03:54;;;;;;;15.40;9.30;;;;;;;5.87;100.00;100569.28;5028296;28;20912;-72
2023/01/30 05:06:21;;;;;;;15.67;8.43;;;;;;;5.91;100.00;100568.56;5026735;28;20204;-72
2023/01/30 05:08:51;;;;;;;12.47;7.87;;;;;;;5.89;100.00;100560.00;5025541;28;20240;-72
2023/01/30 05:11:18;;;;;;;11.40;8.13;;;;;;;5.90;100.00;100564.28;5030263;28;20210;-72
2023/01/30 05:13:43;;;;;;;11.80;7.40;;;;;;;5.90;100.00;100561.72;5022275;28;20191;-71
2023/01/30 05:16:10;;;;;;;14.07;7.83;;;;;;;5.90;100.00;100556.66;5023312;28;20197;-72
2023/01/30 05:18:35;;;;;;;11.57;7.10;;;;;;;5.91;100.00;100558.41;5026231;28;20257;-71
2023/01/30 05:21:06;;;;;;;14.00;7.03;;;;;;;5.91;100.00;100560.06;5023075;28;20246;-72
2023/01/30 05:23:32;;;;;;;13.33;7.27;;;;;;;5.89;100.00;100557.47;5023496;28;20289;-71
2023/01/30 05:25:58;;;;;;;8.47;6.20;;;;;;;5.88;100.00;100552.34;5029702;28;20923;-72
2023/01/30 05:28:24;;;;;;;11.90;6.23;;;;;;;5.89;100.00;100559.16;5030295;28;20224;-72
2023/01/30 05:30:50;;;;;;;10.17;5.60;;;;;;;5.89;100.00;100549.84;5024087;28;20305;-72
2023/01/30 05:33:15;;;;;;;11.00;5.93;;;;;;;5.86;100.00;100559.94;5024401;28;20277;-71
2023/01/30 05:35:48;;;;;;;11.30;5.90;;;;;;;5.87;100.00;100569.28;5025026;28;20285;-72
2023/01/30 05:38:14;;;;;;;10.93;4.57;;;;;;;5.87;100.00;100571.81;5025672;28;20214;-71
2023/01/30 05:40:40;;;;;;;8.60;4.60;;;;;;;5.86;100.00;100574.28;5024541;28;20202;-68
2023/01/30 05:43:05;;;;;;;10.33;3.97;;;;;;;5.86;100.00;100566.66;5027904;28;20191;-71
2023/01/30 05:45:30;;;;;;;8.93;4.30;;;;;;;5.87;100.00;100568.41;5025699;28;20288;-71
2023/01/30 05:47:56;;;;;;;9.33;3.60;;;;;;;5.87;100.00;100558.22;5024314;28;20199;-72
2023/01/30 05:50:21;;;;;;;7.53;3.23;;;;;;;5.84;100.00;100545.44;5025095;28;20194;-71
2023/01/30 05:52:47;;;;;;;10.00;2.70;;;;;;;5.84;100.00;100556.47;5022542;28;20237;-72
2023/01/30 05:55:12;;;;;;;8.47;2.43;;;;;;;5.82;100.00;100558.09;5025299;28;20194;-72
2023/01/30 05:57:38;;;;;;;9.97;2.90;;;;;;;5.82;100.00;100559.75;5019706;28;20203;-70
2023/01/30 06:00:04;;;;;;;7.47;2.00;;;;;;;5.79;100.00;100554.53;5024375;28;20325;-71
2023/01/30 06:02:38;;;;;;;8.47;2.17;;;;;;;5.79;100.00;100562.16;5026845;28;20222;-70
2023/01/30 06:05:04;;;;;;;8.50;1.73;;;;;;;5.76;100.00;100559.53;5023440;28;20191;-72
2023/01/30 06:07:30;;;;;;;14.33;2.30;;;;;;;5.70;100.00;100557.63;5021183;28;20543;-72
2023/01/30 06:09:55;;;;;;;10.47;2.73;;;;;;;5.69;100.00;100543.22;5021565;28;20199;-71
2023/01/30 06:12:21;;;;;;;9.57;2.07;;;;;;;5.65;100.00;100568.44;5029817;28;20752;-71
2023/01/30 06:14:46;;;;;;;13.37;2.47;;;;;;;5.59;100.00;100561.50;5024813;28;20201;-72
2023/01/30 06:17:11;;;;;;;9.37;2.40;;;;;;;5.55;100.00;100563.88;5029601;28;20898;-72
2023/01/30 06:19:37;;;;;;;10.67;2.10;;;;;;;5.52;100.00;100568.88;5023424;28;20244;-71
2023/01/30 06:22:02;;;;;;;12.53;2.00;;;;;;;5.48;100.00;100572.09;5028575;28;20203;-72
2023/01/30 06:24:29;;;;;;;8.80;2.13;;;;;;;5.44;100.00;100568.56;5025837;28;20260;-69
2023/01/30 06:26:54;;;;;;;13.20;2.33;;;;;;;5.40;100.00;100564.22;5027147;28;20191;-73
2023/01/30 06:29:19;;;;;;;9.60;1.73;;;;;;;5.40;100.00;100573.50;5028050;28;20241;-72
2023/01/30 06:31:46;;;;;;;10.67;2.00;;;;;;;5.37;100.00;100574.25;5025300;28;20218;-70
2023/01/30 06:34:11;;;;;;;10.50;2.20;;;;;;;5.34;100.00;100574.13;5024703;28;20210;-70
2023/01/30 06:36:37;;;;;;;9.17;1.73;;;;;;;5.34;100.00;100578.38;5025182;28;20226;-72
2023/01/30 06:39:02;;;;;;;9.77;1.83;;;;;;;5.33;100.00;100581.69;5025143;28;20270;-72
2023/01/30 06:41:28;;;;;;;5.57;2.13;;;;;;;5.35;100.00;100580.09;5026933;28;20206;-71
2023/01/30 06:43:54;;;;;;;8.87;2.27;;;;;;;5.29;100.00;100573.09;5025066;28;20253;-72
2023/01/30 06:46:20;;;;;;;8.80;1.90;;;;;;;5.33;100.00;100579.16;5023632;28;20248;-70
2023/01/30 06:48:45;;;;;;;11.23;2.37;;;;;;;5.36;100.00;100575.06;5023286;28;20195;-72
2023/01/30 06:51:10;;;;;;;13.43;2.23;;;;;;;5.37;100.00;100583.53;5028528;28;20221;-71
2023/01/30 06:53:36;;;;;;;8.07;1.83;;;;;;;5.35;100.00;100583.47;5020977;28;20599;-74
2023/01/30 06:56:01;;;;;;;15.23;2.63;;;;;;;5.29;100.00;100588.34;5022550;28;20631;-72
2023/01/30 06:58:27;;;;;;;14.67;2.43;;;;;;;5.26;100.00;100587.38;5025197;28;20259;-72
2023/01/30 07:00:52;;;;;;;12.90;1.93;;;;;;;5.20;100.00;100585.47;5027799;28;20293;-72
2023/01/30 07:03:18;;;;;;;8.63;1.87;;;;;;;5.16;100.00;100601.38;5029809;28;20273;-73
2023/01/30 07:05:45;;;;;;;13.37;2.30;;;;;;;5.14;100.00;100609.75;5028639;28;20702;-75
2023/01/30 07:08:12;;;;;;;14.40;2.37;;;;;;;5.08;100.00;100612.94;5035000;28;20186;-72
2023/01/30 07:10:39;;;;;;;10.83;1.80;;;;;;;5.10;100.00;100612.97;5028646;28;20210;-73
2023/01/30 07:13:04;;;;;;;6.80;1.47;;;;;;;5.12;100.00;100612.25;5028228;28;20232;-74
2023/01/30 07:15:31;;;;;;;11.13;2.20;;;;;;;5.10;100.00;100618.06;5023148;28;20240;-74
2023/01/30 07:17:56;;;;;;;15.97;2.33;;;;;;;5.09;100.00;100617.22;5023367;28;20207;-74
2023/01/30 07:20:22;;;;;;;8.83;2.40;;;;;;;5.08;100.00;100604.47;5027183;28;20186;-72
2023/01/30 07:22:54;;;;;;;10.03;1.87;;;;;;;5.07;100.00;100605.28;5025020;28;20210;-71
2023/01/30 07:25:22;;;;;;;9.20;2.17;;;;;;;5.09;100.00;100613.78;5025661;28;20182;-73
2023/01/30 07:27:52;;;;;;;8.30;2.00;;;;;;;5.09;100.00;100598.56;5023230;28;20608;-74
2023/01/30 07:30:18;;;;;;;15.40;2.40;;;;;;;5.05;100.00;100610.28;5023893;28;20205;-74
2023/01/30 07:32:44;;;;;;;14.07;2.60;;;;;;;5.03;100.00;100614.44;5025700;28;20211;-73
2023/01/30 07:35:09;;;;;;;14.93;2.60;;;;;;;5.07;100.00;100602.75;5024194;28;20178;-73
2023/01/30 07:37:35;;;;;;;13.80;2.67;;;;;;;5.17;100.00;100612.41;5021801;28;20788;-72
2023/01/30 07:40:00;;;;;;;13.73;2.53;;;;;;;5.20;100.00;100607.47;5023079;28;20186;-74
2023/01/30 07:42:25;;;;;;;15.80;2.57;;;;;;;5.15;100.00;100608.97;5026617;28;20748;-71
2023/01/30 07:44:51;;;;;;;16.20;3.33;;;;;;;5.14;100.00;100603.03;5022560;28;20194;-74
2023/01/30 07:47:18;;;;;;;13.33;2.53;;;;;;;5.15;100.00;100607.28;5028337;28;20178;-74
2023/01/30 07:49:44;;;;;;;17.77;3.17;;;;;;;5.15;100.00;100596.28;5028962;28;20321;-75
2023/01/30 07:52:09;;;;;;;22.67;3.10;;;;;;;5.23;100.00;100600.81;5028930;28;20621;-73
2023/01/30 07:54:35;;;;;;;21.50;3.33;;;;;;;5.26;100.00;100608.56;5029118;28;20618;-73
2023/01/30 07:57:00;;;;;;;24.47;3.27;;;;;;;5.34;100.00;100612.22;5026421;28;20623;-72
2023/01/30 07:59:26;;;;;;;19.80;3.20;;;;;;;5.39;100.00;100608.16;5028706;28;20313;-71
2023/01/30 08:01:52;;;;;;;19.00;3.53;;;;;;;5.42;100.00;100609.94;5026811;28;20210;-73
2023/01/30 08:04:17;;;;;;;25.70;4.40;;;;;;;5.48;100.00;100612.72;5027670;28;20190;-74
2023/01/30 08:06:43;;;;;;;21.43;4.03;;;;;;;5.49;100.00;100609.38;5026131;28;20324;-74
2023/01/30 08:09:08;;;;;;;22.40;3.90;;;;;;;5.55;100.00;100612.09;5026312;28;20197;-72
2023/01/30 08:11:34;;;;;;;23.30;4.40;;;;;;;5.69;100.00;100611.78;5025844;28;20210;-74
2023/01/30 08:13:59;;;;;;;26.60;4.87;;;;;;;5.89;100.00;100613.38;5022736;28;20194;-73
2023/01/30 08:16:25;;;;;;;25.43;4.50;;;;;;;6.01;100.00;100608.72;5026339;28;20187;-72
2023/01/30 08:18:50;;;;;;;25.13;4.20;;;;;;;5.95;100.00;100603.41;5022373;28;20219;-73
2023/01/30 08:21:15;;;;;;;24.77;4.30;;;;;;;5.98;100.00;100611.13;5022262;28;20301;-72
2023/01/30 08:23:41;;;;;;;33.50;4.77;;;;;;;6.05;100.00;100608.00;5022464;28;20277;-71
2023/01/30 08:26:06;;;;;;;22.17;4.30;;;;;;;6.31;100.00;100604.59;5022241;28;20238;-73
2023/01/30 08:28:32;;;;;;;28.60;5.07;;;;;;;6.33;100.00;100608.09;5020295;28;20233;-73
2023/01/30 08:30:58;;;;;;;26.57;4.63;;;;;;;6.11;100.00;100608.19;5028853;28;20221;-74
2023/01/30 08:33:23;;;;;;;37.10;5.30;;;;;;;5.90;100.00;100612.53;5031965;28;20186;-72
2023/01/30 08:35:49;;;;;;;26.53;4.87;;;;;;;5.79;100.00;100618.03;5032169;28;20646;-73
2023/01/30 08:38:15;;;;;;;18.53;4.03;;;;;;;5.69;100.00;100627.03;5020592;28;20207;-73
2023/01/30 08:40:41;;;;;;;27.57;4.20;;;;;;;5.66;100.00;100621.84;5030142;28;20193;-73
2023/01/30 08:43:07;;;;;;;31.73;5.03;;;;;;;5.68;100.00;100619.34;5029523;28;20535;-73
2023/01/30 08:45:33;;;;;;;21.03;4.83;;;;;;;5.71;100.00;100610.16;5031282;28;20186;-74
2023/01/30 08:48:04;;;;;;;21.87;4.10;;;;;;;5.74;100.00;100622.97;5031797;28;20590;-74
2023/01/30 08:50:31;;;;;;;28.40;4.90;;;;;;;5.85;100.00;100623.38;5030720;28;20237;-71
2023/01/30 08:52:56;;;;;;;24.43;4.37;;;;;;;5.97;100.00;100617.03;5030548;28;20186;-73
2023/01/30 08:55:22;;;;;;;24.47;5.10;;;;;;;6.15;100.00;100607.47;5028424;28;20201;-73
2023/01/30 08:57:47;;;;;;;24.77;4.40;;;;;;;6.06;100.00;100603.75;5028315;28;20224;-73
2023/01/30 09:00:14;;;;;;;22.63;3.97;;;;;;;6.14;100.00;100608.31;5029320;28;20178;-73
2023/01/30 09:02:40;;;;;;;28.57;5.40;;;;;;;6.04;100.00;100598.63;5027876;28;20264;-71
2023/01/30 09:05:06;;;;;;;29.63;5.23;;;;;;;6.10;100.00;100592.88;5028050;28;20190;-73
2023/01/30 09:07:32;;;;;;;20.13;4.17;;;;;;;6.27;100.00;100605.31;5029037;28;20209;-74
2023/01/30 09:09:57;;;;;;;28.93;4.40;;;;;;;6.42;100.00;100599.88;5025756;28;20199;-73
2023/01/30 09:12:23;;;;;;;27.57;5.30;;;;;;;6.77;100.00;100589.13;5023771;28;20758;-73
2023/01/30 09:14:48;;;;;;;25.83;4.70;;;;;;;6.92;100.00;100612.47;5025327;28;20202;-75
2023/01/30 09:17:14;;;;;;;23.80;4.33;;;;;;;7.29;100.00;100595.78;5029494;28;20260;-73
2023/01/30 09:19:39;;;;;;;24.63;4.53;;;;;;;7.45;100.00;100595.38;5027875;28;20707;-70
2023/01/30 09:22:06;;;;;;;29.03;5.23;;;;;;;7.21;100.00;100593.81;5030664;28;20245;-72
2023/01/30 09:24:32;;;;;;;26.27;5.17;;;;;;;7.15;100.00;100596.19;5029780;28;20266;-71
2023/01/30 09:26:58;;;;;;;25.97;4.80;;;;;;;6.74;100.00;100594.09;5028533;28;20587;-71
2023/01/30 09:29:27;;;;;;;29.60;4.90;;;;;;;6.59;100.00;100614.84;5030520;28;20179;-71
2023/01/30 09:31:57;;;;;;;31.27;5.07;;;;;;;6.37;100.00;100604.81;5028461;28;20238;-73
2023/01/30 09:34:26;;;;;;;24.30;4.50;;;;;;;6.25;100.00;100612.03;5025114;28;20265;-72
2023/01/30 09:36:53;;;;;;;26.27;4.53;;;;;;;6.22;100.00;100601.78;5028595;28;20543;-72
2023/01/30 09:39:18;;;;;;;29.40;4.03;;;;;;;6.16;100.00;100598.16;5027269;28;20181;-73
2023/01/30 09:42:22;;;;;;;27.17;5.33;;;;;;;6.25;100.00;100601.88;5024584;28;20581;-72
2023/01/30 09:44:58;;;;;;;33.50;5.27;;;;;;;6.43;100.00;100592.28;5026662;28;20190;-72
2023/01/30 09:47:34;;;;;;;27.43;4.67;;;;;;;6.75;100.00;100573.81;5027235;28;20220;-73
2023/01/30 09:50:49;;;;;;;24.60;4.23;;;;;;;6.75;100.00;100583.09;5006864;28;20230;-72
2023/01/30 09:53:24;;;;;;;28.23;4.53;;;;;;;9.79;100.00;100567.66;4951954;28;20632;-70
2023/01/30 09:55:50;;;;;;;22.50;4.27;;;;;;;9.84;100.00;100583.06;4967460;28;20223;-72
2023/01/30 09:58:19;;;;;;;19.30;3.90;;;;;;;7.87;100.00;100585.47;4998445;28;20238;-73
2023/01/30 10:00:47;;;;;;;21.13;4.53;;;;;;;7.50;100.00;100583.63;5024507;28;20214;-72
2023/01/30 10:03:27;;;;;;;17.43;4.20;;;;;;;8.91;100.00;100579.50;5025900;28;20190;-71
2023/01/30 10:05:58;;;;;;;23.87;4.33;;;;;;;9.25;100.00;100581.03;5027455;28;20178;-72
2023/01/30 10:08:49;;;;;;;18.47;4.63;;;;;;;11.43;100.00;100563.25;5027024;28;20183;-74
2023/01/30 10:11:17;;;;;;;23.10;4.23;;;;;;;12.22;100.00;100557.25;5028967;28;20214;-72
2023/01/30 10:14:04;;;;;;;19.13;4.37;;;;;;;13.03;96.35;100560.34;5026636;28;20186;-73
2023/01/30 10:16:53;;;;;;;19.03;4.30;;;;;;;9.00;100.00;100581.38;5028160;28;20205;-73
2023/01/30 10:19:18;;;;;;;25.30;4.93;;;;;;;8.15;100.00;100570.03;5028910;28;20210;-70
2023/01/30 10:22:11;;;;;;;24.33;4.13;;;;;;;7.89;100.00;100579.59;5027269;28;20213;-71
2023/01/30 10:24:37;;;;;;;23.77;5.63;;;;;;;7.42;100.00;100571.50;5028304;28;20186;-71
2023/01/30 10:27:04;;;;;;;20.93;4.00;;;;;;;7.18;100.00;100558.94;5004701;28;20229;-73
2023/01/30 10:29:37;;;;;;;29.73;5.97;;;;;;;7.08;100.00;100546.78;5027768;28;21028;-71
2023/01/30 10:32:17;;;;;;;28.33;5.27;;;;;;;6.96;100.00;100531.16;5027667;28;20225;-72
2023/01/30 10:34:49;;;;;;;22.57;4.30;;;;;;;6.98;100.00;100544.81;5028306;28;20659;-72
2023/01/30 10:37:26;;;;;;;25.87;4.63;;;;;;;6.88;100.00;100539.41;5025492;28;20297;-70
2023/01/30 10:40:18;;;;;;;18.67;3.93;;;;;;;6.79;100.00;100541.66;5025017;28;20194;-71
2023/01/30 10:42:58;;;;;;;18.70;4.47;;;;;;;6.72;100.00;100537.25;5025220;28;20399;-72
2023/01/30 10:45:36;;;;;;;23.47;3.97;;;;;;;6.66;100.00;100522.66;5025458;28;20186;-71
2023/01/30 10:48:37;;;;;;;27.73;4.77;;;;;;;6.60;100.00;100508.88;5025224;28;20182;-71
2023/01/30 10:51:09;;;;;;;25.07;4.60;;;;;;;6.60;100.00;100499.59;5023204;28;20293;-72
2023/01/30 10:53:44;;;;;;;15.77;4.23;;;;;;;6.63;100.00;100494.56;5028509;28;20588;-71
2023/01/30 10:56:22;;;;;;;30.00;5.30;;;;;;;6.77;100.00;100484.81;5025850;28;20593;-72
2023/01/30 10:58:55;;;;;;;21.27;3.30;;;;;;;6.88;100.00;100473.22;5027266;28;20214;-72
2023/01/30 11:01:31;;;;;;;18.33;5.10;;;;;;;6.93;100.00;100533.63;5025740;28;21081;-72
2023/01/30 11:04:13;;;;;;;20.67;3.93;;;;;;;6.84;100.00;100519.75;5028207;28;20194;-73
2023/01/30 11:06:40;;;;;;;22.53;4.10;;;;;;;6.90;100.00;100509.75;5026108;28;20285;-70
2023/01/30 11:09:07;;;;;;;20.50;3.60;;;;;;;6.73;100.00;100505.88;5022806;28;20241;-71
2023/01/30 11:11:42;;;;;;;25.27;4.20;;;;;;;6.60;100.00;100522.47;5023089;28;20824;-73
2023/01/30 11:14:10;;;;;;;23.60;3.83;;;;;;;6.48;100.00;100508.50;5027314;28;20567;-72
2023/01/30 11:16:57;;;;;;;24.00;4.83;;;;;;;6.26;100.00;100496.84;5028572;28;20249;-71
2023/01/30 11:19:33;;;;;;;21.37;4.90;;;;;;;6.03;100.00;100528.28;5023070;28;20190;-71
2023/01/30 11:22:04;;;;;;;12.63;3.07;;;;;;;5.86;100.00;100551.44;5026337;28;20565;-73
2023/01/30 11:24:37;;;;;;;17.67;2.83;;;;;;;5.59;100.00;100551.34;5009619;28;20972;-70
2023/01/30 11:27:32;;;;;;;9.83;2.07;;;;;;;5.47;100.00;100566.16;5020814;28;20182;-72
2023/01/30 11:30:24;;;;;;;12.30;2.53;;;;;;;5.34;100.00;100568.22;5010680;28;20230;-71
2023/01/30 11:32:50;;;;;;;13.93;1.90;;;;;;;5.34;100.00;100570.75;5010044;28;20338;-72
2023/01/30 11:35:28;;;;;;;8.00;1.60;;;;;;;5.19;100.00;100590.47;5025308;28;20265;-72